createdAt,value
2023-04-09T00:01:12.687Z,7.51
2023-04-09T00:03:40.657Z,7.76
2023-04-09T00:06:07.822Z,7.15
2023-04-09T00:08:34.628Z,6.84
2023-04-09T00:11:01.555Z,7.16
2023-04-09T00:15:58.907Z,7.49
2023-04-09T00:18:25.819Z,7.22
2023-04-09T00:20:52.811Z,7.19
2023-04-09T00:23:20.722Z,7.09
2023-04-09T00:25:47.604Z,7.40
2023-04-09T00:28:14.447Z,7.39
2023-04-09T00:30:41.564Z,7.14
2023-04-09T00:33:08.487Z,7.28
2023-04-09T00:35:35.651Z,7.34
2023-04-09T00:38:02.754Z,6.83
2023-04-09T00:40:29.698Z,6.94
2023-04-09T00:42:59.622Z,7.10
2023-04-09T00:45:28.106Z,7.22
2023-04-09T00:47:55.116Z,7.27
2023-04-09T00:50:22.284Z,7.46
2023-04-09T00:52:49.684Z,7.17
2023-04-09T00:55:18.332Z,6.91
2023-04-09T00:57:45.210Z,7.02
2023-04-09T01:00:13.428Z,7.09
2023-04-09T01:02:41.389Z,6.76
2023-04-09T01:05:09.141Z,7.10
2023-04-09T01:08:04.234Z,7.08
2023-04-09T01:10:41.613Z,7.61
2023-04-09T01:13:20.186Z,7.52
2023-04-09T01:15:57.303Z,7.35
2023-04-09T01:18:59.172Z,6.96
2023-04-09T01:21:31.535Z,7.28
2023-04-09T01:24:16.877Z,7.40
2023-04-09T01:27:06.321Z,7.56
2023-04-09T01:29:40.318Z,7.84
2023-04-09T01:32:08.371Z,7.92
2023-04-09T01:34:36.001Z,7.77
2023-04-09T01:37:04.172Z,7.32
2023-04-09T01:39:31.562Z,7.21
2023-04-09T01:41:58.969Z,7.38
2023-04-09T01:44:27.879Z,7.45
2023-04-09T01:46:56.269Z,7.60
2023-04-09T01:49:23.433Z,7.61
2023-04-09T01:51:51.378Z,7.30
2023-04-09T01:54:18.296Z,6.94
2023-04-09T01:56:47.429Z,6.87
2023-04-09T01:59:15.205Z,7.30
2023-04-09T02:01:47.513Z,7.36
2023-04-09T02:04:26.843Z,7.49
2023-04-09T02:06:58.974Z,7.92
2023-04-09T02:09:29.985Z,7.64
2023-04-09T02:12:02.077Z,7.66
2023-04-09T02:14:31.980Z,7.37
2023-04-09T02:16:59.766Z,7.36
2023-04-09T02:19:45.310Z,7.31
2023-04-09T02:22:13.269Z,7.53
2023-04-09T02:24:40.899Z,7.41
2023-04-09T02:27:08.177Z,7.03
2023-04-09T02:29:35.351Z,7.22
2023-04-09T02:32:02.321Z,7.48
2023-04-09T02:34:29.637Z,7.47
2023-04-09T02:36:56.685Z,7.15
2023-04-09T02:39:23.511Z,7.08
2023-04-09T02:41:50.594Z,7.31
2023-04-09T02:44:17.664Z,7.28
2023-04-09T02:46:45.370Z,7.51
2023-04-09T02:49:12.545Z,7.55
2023-04-09T02:51:39.544Z,7.79
2023-04-09T02:54:06.514Z,7.10
2023-04-09T02:56:33.794Z,7.09
2023-04-09T02:59:00.798Z,7.21
2023-04-09T03:01:27.732Z,7.40
2023-04-09T03:03:54.931Z,7.19
2023-04-09T03:06:22.262Z,6.97
2023-04-09T03:08:49.372Z,6.73
2023-04-09T03:11:19.163Z,6.90
2023-04-09T03:13:46.475Z,7.49
2023-04-09T03:16:14.148Z,7.60
2023-04-09T03:18:42.184Z,7.59
2023-04-09T03:21:10.337Z,7.52
2023-04-09T03:23:38.367Z,7.39
2023-04-09T03:26:06.596Z,6.88
2023-04-09T03:28:33.768Z,7.03
2023-04-09T03:31:01.112Z,7.34
2023-04-09T03:33:28.759Z,7.36
2023-04-09T03:35:55.643Z,6.95
2023-04-09T03:38:22.735Z,7.19
2023-04-09T03:40:50.616Z,7.15
2023-04-09T03:43:17.660Z,7.07
2023-04-09T03:45:48.892Z,7.17
2023-04-09T03:48:18.781Z,7.50
2023-04-09T03:51:01.055Z,7.54
2023-04-09T03:53:31.031Z,7.62
2023-04-09T03:55:58.141Z,7.29
2023-04-09T03:58:25.039Z,7.86
2023-04-09T04:00:52.815Z,7.61
2023-04-09T04:03:23.588Z,7.78
2023-04-09T04:05:50.771Z,6.93
2023-04-09T04:08:27.603Z,7.24
2023-04-09T04:10:54.693Z,6.79
2023-04-09T04:13:21.838Z,7.42
2023-04-09T04:15:49.439Z,7.16
2023-04-09T04:18:16.543Z,6.97
2023-04-09T04:20:43.721Z,7.25
2023-04-09T04:23:11.290Z,7.42
2023-04-09T04:25:42.204Z,7.63
2023-04-09T04:28:09.410Z,7.85
2023-04-09T04:30:36.702Z,7.78
2023-04-09T04:33:03.714Z,7.56
2023-04-09T04:35:30.722Z,7.82
2023-04-09T04:37:58.172Z,7.94
2023-04-09T04:40:25.390Z,7.61
2023-04-09T04:42:52.406Z,7.62
2023-04-09T04:45:19.494Z,7.39
2023-04-09T04:47:46.525Z,7.33
2023-04-09T04:50:13.592Z,7.75
2023-04-09T04:52:41.098Z,7.61
2023-04-09T04:55:08.325Z,7.58
2023-04-09T04:57:35.643Z,7.64
2023-04-09T05:00:06.127Z,7.92
2023-04-09T05:02:33.521Z,7.90
2023-04-09T05:05:00.854Z,8.09
2023-04-09T05:07:27.954Z,8.06
2023-04-09T05:15:47.603Z,7.64
2023-04-09T05:18:16.336Z,8.17
2023-04-09T05:20:43.530Z,8.01
2023-04-09T05:23:29.755Z,7.94
2023-04-09T05:25:56.746Z,8.48
2023-04-09T05:28:24.120Z,8.33
2023-04-09T05:30:51.704Z,8.69
2023-04-09T05:33:18.982Z,8.58
2023-04-09T05:35:46.254Z,8.42
2023-04-09T05:38:18.205Z,8.24
2023-04-09T05:40:46.306Z,8.73
2023-04-09T05:43:13.271Z,9.21
2023-04-09T05:45:49.753Z,9.04
2023-04-09T05:48:25.176Z,9.56
2023-04-09T05:50:56.035Z,8.90
2023-04-09T05:53:23.239Z,8.82
2023-04-09T05:56:01.392Z,8.86
2023-04-09T05:58:42.280Z,8.81
2023-04-09T06:01:10.125Z,9.61
2023-04-09T06:04:12.760Z,9.56
2023-04-09T06:09:15.326Z,10.57
2023-04-09T06:11:44.741Z,10.42
2023-04-09T06:20:17.760Z,10.53
2023-04-09T06:23:30.773Z,10.85
2023-04-09T06:26:01.917Z,12.09
2023-04-09T06:28:34.695Z,12.02
2023-04-09T06:31:06.620Z,11.44
2023-04-09T06:49:39.429Z,11.38
2023-04-09T07:16:24.065Z,12.23
2023-04-09T07:19:04.371Z,12.98
2023-04-09T07:21:35.863Z,13.18
2023-04-09T07:24:02.885Z,13.20
2023-04-09T07:26:32.551Z,13.20
2023-04-09T07:28:59.663Z,13.20
2023-04-09T07:31:27.491Z,13.71
2023-04-09T07:33:54.875Z,13.51
2023-04-09T07:36:27.275Z,11.95
2023-04-09T07:38:55.274Z,13.46
2023-04-09T07:41:22.853Z,13.94
2023-04-09T07:44:01.763Z,13.47
2023-04-09T07:46:30.936Z,12.88
2023-04-09T07:49:06.493Z,13.25
2023-04-09T07:51:33.867Z,12.81
2023-04-09T07:54:00.685Z,13.44
2023-04-09T07:56:27.768Z,13.23
2023-04-09T07:58:58.727Z,12.23
2023-04-09T08:01:29.925Z,12.20
2023-04-09T08:03:57.851Z,12.07
2023-04-09T08:06:32.466Z,12.44
2023-04-09T08:09:14.886Z,12.62
2023-04-09T08:32:16.635Z,12.44
2023-04-09T08:46:51.166Z,12.37
2023-04-09T08:49:43.483Z,12.32
2023-04-09T08:52:19.516Z,12.41
2023-04-09T08:55:07.028Z,12.54
2023-04-09T08:57:41.178Z,13.56
2023-04-09T09:00:08.792Z,12.63
2023-04-09T09:02:36.244Z,13.25
2023-04-09T09:05:04.130Z,13.86
2023-04-09T09:07:31.819Z,13.87
2023-04-09T09:10:02.506Z,13.85
2023-04-09T09:12:40.931Z,13.79
2023-04-09T09:15:27.592Z,13.36
2023-04-09T09:18:00.012Z,13.73
2023-04-09T09:20:27.866Z,13.81
2023-04-09T09:22:57.188Z,14.27
2023-04-09T09:25:26.647Z,14.36
2023-04-09T09:27:54.864Z,14.16
2023-04-09T09:30:27.066Z,14.09
2023-04-09T09:33:10.778Z,14.16
2023-04-09T09:35:58.824Z,14.17
2023-04-09T09:38:25.920Z,13.73
2023-04-09T09:40:52.841Z,14.46
2023-04-09T09:43:20.028Z,14.39
2023-04-09T09:45:47.712Z,14.42
2023-04-09T09:48:16.007Z,14.13
2023-04-09T09:50:44.638Z,14.50
2023-04-09T09:53:12.199Z,14.78
2023-04-09T09:55:41.605Z,14.64
2023-04-09T09:58:24.233Z,15.35
2023-04-09T10:00:52.909Z,14.78
2023-04-09T10:03:29.564Z,15.60
2023-04-09T10:05:59.176Z,15.23
2023-04-09T10:08:28.962Z,14.65
2023-04-09T10:10:56.538Z,15.08
2023-04-09T10:13:35.908Z,14.93
2023-04-09T10:16:03.744Z,15.20
2023-04-09T10:18:33.696Z,14.83
2023-04-09T10:21:19.241Z,14.37
2023-04-09T10:23:49.641Z,14.59
2023-04-09T10:26:18.901Z,15.08
2023-04-09T10:28:46.165Z,15.20
2023-04-09T10:31:14.406Z,15.75
2023-04-09T10:33:44.021Z,15.96
2023-04-09T10:36:13.188Z,14.64
2023-04-09T10:38:41.701Z,14.75
2023-04-09T10:41:10.388Z,14.38
2023-04-09T10:43:37.715Z,13.49
2023-04-09T10:46:25.104Z,14.82
2023-04-09T10:49:18.353Z,14.89
2023-04-09T10:52:10.898Z,15.43
2023-04-09T10:54:46.799Z,14.67
2023-04-09T10:57:18.185Z,15.14
2023-04-09T10:59:50.647Z,15.34
2023-04-09T11:02:21.322Z,15.15
2023-04-09T11:05:11.070Z,15.65
2023-04-09T11:07:44.044Z,16.04
2023-04-09T11:10:10.838Z,15.67
2023-04-09T11:12:37.888Z,16.01
2023-04-09T11:15:05.291Z,14.84
2023-04-09T11:17:37.208Z,14.72
2023-04-09T11:20:04.711Z,15.31
2023-04-09T11:22:32.020Z,15.31
2023-04-09T11:24:58.726Z,14.69
2023-04-09T11:27:26.146Z,14.68
2023-04-09T11:29:56.692Z,14.58
2023-04-09T11:32:29.406Z,14.85
2023-04-09T11:34:58.334Z,14.50
2023-04-09T11:37:25.256Z,14.22
2023-04-09T11:39:57.745Z,14.63
2023-04-09T11:42:25.949Z,14.86
2023-04-09T11:44:56.214Z,14.93
2023-04-09T11:47:25.315Z,14.64
2023-04-09T11:49:54.964Z,14.26
2023-04-09T11:52:21.943Z,14.51
2023-04-09T11:54:50.005Z,13.87
2023-04-09T11:57:17.868Z,13.67
2023-04-09T11:59:45.332Z,13.52
2023-04-09T12:02:12.598Z,13.50
2023-04-09T12:04:54.408Z,13.83
2023-04-09T12:07:22.354Z,13.45
2023-04-09T12:13:08.327Z,13.15
2023-04-09T12:15:37.361Z,13.54
2023-04-09T12:18:08.019Z,12.87
2023-04-09T12:20:40.227Z,12.98
2023-04-09T12:23:08.468Z,12.88
2023-04-09T12:25:37.938Z,13.09
2023-04-09T12:28:10.255Z,12.97
2023-04-09T12:30:37.202Z,12.67
2023-04-09T12:33:04.845Z,12.98
2023-04-09T12:35:34.886Z,12.92
2023-04-09T12:38:11.852Z,13.09
2023-04-09T12:40:47.817Z,12.83
2023-04-09T12:43:14.652Z,13.12
2023-04-09T12:45:43.005Z,13.34
2023-04-09T12:48:10.225Z,13.24
2023-04-09T12:50:37.306Z,13.34
2023-04-09T12:53:05.868Z,12.73
2023-04-09T12:55:35.739Z,13.15
2023-04-09T13:00:54.619Z,13.16
2023-04-09T13:03:21.917Z,13.24
2023-04-09T13:05:49.680Z,13.46
2023-04-09T13:08:20.406Z,13.02
2023-04-09T13:10:49.950Z,13.26
2023-04-09T13:16:15.632Z,12.95
2023-04-09T13:18:46.372Z,12.70
2023-04-09T13:21:24.109Z,12.73
2023-04-09T13:24:01.024Z,12.65
2023-04-09T13:26:44.605Z,12.23
2023-04-09T13:29:14.185Z,12.05
2023-04-09T13:32:06.347Z,12.36
2023-04-09T13:34:36.881Z,12.46
2023-04-09T13:37:05.522Z,12.61
2023-04-09T13:39:44.727Z,12.76
2023-04-09T13:42:25.095Z,12.36
2023-04-09T13:48:01.390Z,12.73
2023-04-09T13:51:12.210Z,12.49
2023-04-09T13:53:54.036Z,12.90
2023-04-09T13:56:34.893Z,12.64
2023-04-09T13:59:03.884Z,12.69
2023-04-09T14:01:32.982Z,12.43
2023-04-09T14:04:13.468Z,12.35
2023-04-09T14:06:41.014Z,12.84
2023-04-09T14:09:13.774Z,12.59
2023-04-09T14:11:40.805Z,12.66
2023-04-09T14:15:24.009Z,12.70
2023-04-09T14:17:51.908Z,12.75
2023-04-09T14:20:21.461Z,12.67
2023-04-09T14:23:12.316Z,12.36
2023-04-09T14:25:42.436Z,12.36
2023-04-09T14:28:09.313Z,12.32
2023-04-09T14:33:36.676Z,12.39
2023-04-09T14:36:03.687Z,12.19
2023-04-09T14:38:31.162Z,12.22
2023-04-09T14:40:58.413Z,12.41
2023-04-09T14:43:28.497Z,12.32
2023-04-09T14:45:55.606Z,12.40
2023-04-09T14:48:25.541Z,12.36
2023-04-09T14:50:52.693Z,11.93
2023-04-09T14:53:19.867Z,11.89
2023-04-09T14:55:46.924Z,11.91
2023-04-09T14:58:13.871Z,12.20
2023-04-09T15:00:45.534Z,12.50
2023-04-09T15:03:19.248Z,12.26
2023-04-09T15:05:49.880Z,12.12
2023-04-09T15:08:16.877Z,12.55
2023-04-09T15:10:43.796Z,12.48
2023-04-09T15:13:13.708Z,12.45
2023-04-09T15:16:15.870Z,12.27
2023-04-09T15:19:07.113Z,12.00
2023-04-09T15:21:34.432Z,12.38
2023-04-09T15:24:06.791Z,12.40
2023-04-09T15:26:43.461Z,12.48
2023-04-09T15:45:16.711Z,11.68
2023-04-09T15:47:47.350Z,11.67
2023-04-09T15:50:14.925Z,11.68
2023-04-09T15:52:42.267Z,11.73
2023-04-09T15:55:09.867Z,11.59
2023-04-09T15:57:38.424Z,11.64
2023-04-09T16:00:08.397Z,11.50
2023-04-09T16:02:37.035Z,11.40
2023-04-09T16:05:06.176Z,11.71
2023-04-09T16:07:33.757Z,11.29
2023-04-09T16:10:01.840Z,11.00
2023-04-09T16:12:28.909Z,11.07
2023-04-09T16:14:55.816Z,11.35
2023-04-09T16:17:25.414Z,10.86
2023-04-09T16:19:55.083Z,10.73
2023-04-09T16:22:22.354Z,10.81
2023-04-09T16:24:50.681Z,10.68
2023-04-09T16:27:17.497Z,10.79
2023-04-09T16:29:44.649Z,10.62
2023-04-09T16:32:11.618Z,10.85
2023-04-09T16:34:38.830Z,10.75
2023-04-09T16:37:05.982Z,10.99
2023-04-09T16:39:32.882Z,10.95
2023-04-09T16:41:59.722Z,11.09
2023-04-09T16:44:26.579Z,10.46
2023-04-09T16:46:53.362Z,10.57
2023-04-09T16:49:20.443Z,10.42
2023-04-09T16:51:47.554Z,10.60
2023-04-09T16:54:14.500Z,10.69
2023-04-09T16:56:41.595Z,10.81
2023-04-09T16:59:21.446Z,10.73
2023-04-09T17:01:51.277Z,10.90
2023-04-09T17:04:18.572Z,10.84
2023-04-09T17:15:31.700Z,11.02
2023-04-09T17:17:58.814Z,11.26
2023-04-09T17:23:16.768Z,10.87
2023-04-09T17:25:44.094Z,10.54
2023-04-09T17:28:29.526Z,10.75
2023-04-09T17:30:59.363Z,10.73
2023-04-09T17:33:29.620Z,10.82
2023-04-09T18:22:58.522Z,10.93
2023-04-09T18:25:25.671Z,10.55
2023-04-09T18:27:54.030Z,10.44
2023-04-09T19:17:54.406Z,10.83
2023-04-09T19:20:29.306Z,10.51
2023-04-09T19:22:57.839Z,10.66
2023-04-09T19:25:26.851Z,10.38
2023-04-09T19:27:54.679Z,10.31
2023-04-09T19:30:22.385Z,10.67
2023-04-09T19:32:49.300Z,10.46
2023-04-09T19:35:16.365Z,10.38
2023-04-09T19:37:43.938Z,10.55
2023-04-09T19:40:11.477Z,10.16
2023-04-09T19:42:38.824Z,10.38
2023-04-09T19:45:06.655Z,10.15
2023-04-09T19:47:34.973Z,9.95
2023-04-09T19:50:02.167Z,9.76
2023-04-09T19:52:29.267Z,9.98
2023-04-09T19:54:57.140Z,10.00
2023-04-09T19:57:24.265Z,9.72
2023-04-09T19:59:55.766Z,9.71
2023-04-09T20:02:24.272Z,10.06
2023-04-09T20:04:53.130Z,9.83
2023-04-09T20:07:20.609Z,9.76
2023-04-09T20:09:47.750Z,9.91
2023-04-09T20:12:14.856Z,10.09
2023-04-09T20:14:42.067Z,10.32
2023-04-09T20:17:09.931Z,10.15
2023-04-09T20:19:40.586Z,9.79
2023-04-09T20:22:07.467Z,9.41
2023-04-09T20:24:35.519Z,9.49
2023-04-09T20:27:04.477Z,9.57
2023-04-09T20:29:32.555Z,9.77
2023-04-09T20:32:00.294Z,9.79
2023-04-09T20:34:27.736Z,9.54
2023-04-09T20:36:55.350Z,9.25
2023-04-09T20:39:25.102Z,9.18
2023-04-09T20:41:52.021Z,9.34
2023-04-09T20:44:22.913Z,9.58
2023-04-09T20:46:51.090Z,9.24
2023-04-09T20:49:18.240Z,9.37
2023-04-09T20:51:46.497Z,9.24
2023-04-09T20:54:13.378Z,9.41
2023-04-09T20:56:40.244Z,9.29
2023-04-09T20:59:07.937Z,9.26
2023-04-09T21:01:36.024Z,9.19
2023-04-09T21:04:04.239Z,9.30
2023-04-09T21:06:31.775Z,9.31
2023-04-09T21:08:59.856Z,9.42
2023-04-09T21:11:26.874Z,9.32
2023-04-09T21:13:55.591Z,9.35
2023-04-09T21:16:23.616Z,9.25
2023-04-09T21:18:51.038Z,9.13
2023-04-09T21:21:19.299Z,9.31
2023-04-09T21:23:46.335Z,9.30
2023-04-09T21:26:14.267Z,9.28
2023-04-09T21:28:41.406Z,9.26
2023-04-09T21:31:11.652Z,9.30
2023-04-09T21:33:39.449Z,9.26
2023-04-09T21:36:08.438Z,9.08
2023-04-09T21:38:35.694Z,9.26
2023-04-09T21:41:02.460Z,9.50
2023-04-09T21:43:30.619Z,8.79
2023-04-09T21:45:57.824Z,8.63
2023-04-09T21:48:25.892Z,9.03
2023-04-09T21:50:53.469Z,8.90
2023-04-09T21:53:20.457Z,9.02
2023-04-09T21:55:47.705Z,9.19
2023-04-09T21:58:15.804Z,9.10
2023-04-09T22:00:43.148Z,9.38
2023-04-09T22:03:10.363Z,9.06
2023-04-09T22:05:38.096Z,8.98
2023-04-09T22:08:05.160Z,9.00
2023-04-09T22:10:32.362Z,8.64
2023-04-09T22:12:59.844Z,8.52
2023-04-09T22:15:26.898Z,8.45
2023-04-09T22:17:54.327Z,8.96
2023-04-09T22:20:21.808Z,8.72
2023-04-09T22:22:49.017Z,8.66
2023-04-09T22:25:19.007Z,8.55
2023-04-09T22:27:51.159Z,8.50
2023-04-09T22:30:18.508Z,8.45
2023-04-09T22:32:45.567Z,8.60
2023-04-09T22:35:18.699Z,8.77
2023-04-09T22:37:47.250Z,8.68
2023-04-09T22:40:16.224Z,8.59
2023-04-09T22:42:44.300Z,8.82
2023-04-09T22:45:11.421Z,8.37
2023-04-09T22:47:38.931Z,8.47
2023-04-09T22:50:07.334Z,8.42
2023-04-09T22:52:34.214Z,8.34
2023-04-09T22:55:01.556Z,8.06
2023-04-09T22:57:28.787Z,8.54
2023-04-09T22:59:57.960Z,8.13
2023-04-09T23:02:24.957Z,8.08
2023-04-09T23:04:52.274Z,8.48
2023-04-09T23:07:19.147Z,8.24
2023-04-09T23:09:46.024Z,8.00
2023-04-09T23:12:13.027Z,8.43
2023-04-09T23:14:39.879Z,8.28
2023-04-09T23:17:07.165Z,8.22
2023-04-09T23:19:34.197Z,8.31
2023-04-09T23:22:01.046Z,8.10
2023-04-09T23:24:27.858Z,7.89
2023-04-09T23:26:54.870Z,8.30
2023-04-09T23:29:21.803Z,8.46
2023-04-09T23:31:48.697Z,8.06
2023-04-09T23:34:15.883Z,7.93
2023-04-09T23:36:42.806Z,8.22
2023-04-09T23:39:09.803Z,8.51
2023-04-09T23:41:37.958Z,8.23
2023-04-09T23:44:04.988Z,7.80
2023-04-09T23:46:32.445Z,7.83
2023-04-09T23:48:59.431Z,7.32
2023-04-09T23:51:26.206Z,7.58
2023-04-09T23:53:53.323Z,7.87
2023-04-09T23:56:20.535Z,8.01
2023-04-09T23:58:47.266Z,7.88
